Aérodrome :
LOGIN :

S'inscrire | Disclaimer

   EN    FR    IT 

 










Légende :    VFR   VFR Marginal   IFR   IFR Intensif   IFR Très Intensif
Visi : 
Plafond : 
>= 8 km
>= 3000ft
5 à 8 km
1000 à 3000 ft
1500m à 5 km
500 à 1000 ft
800 à 1500m
200 à 500 ft
< 800m
< 200 ft
Symboles :   Orages  Brouillard  Fortes neiges  Fortes précipitations  Vent > 20 kt
SIGMETs :   Divers  Orages  Givrage  Turbulence  Onde Orograph.  Cendres Volcan.






- Altitude de l'aérodrome : 39 ft
- Code IATA : ANR


EBAW - Anvers / Antwerpen Deurne

DERNIER METAR :
  • 252320Z AUTO 12006KT 0550 R11/0650N R29/0700N FG VV002 02/02 Q1018

METARs EXPIRÉS :
  • 252250Z AUTO 13006KT 0500 R11/0600N R29/0600N FG VV002 02/02 Q1019
  • 252220Z AUTO 12006KT 080V150 0500 R11/0600N R29/0650N FG VV002 02/02 Q1019
  • 252150Z 14006KT 100V160 0250 R11/0750N R29/0800N FG VV001 02/02 Q1019 NOSIG
  • 252120Z 11006KT 0300 R11/0550N R29/0550N FG VV001 03/02 Q1019 NOSIG
  • 252050Z 13006KT 0300 R11/0750N R29/0700N FG OVC002 03/02 Q1019 NOSIG

TAF TAF EBAW
Valide du 26 à 00h jusqu'au 26 à 09h UTC


252314Z 2600/2609 14003KT 0500 FG BKN001
BECMG 2603/2606 2000 BR BKN004
BECMG 2606/2608 4000 BR



MET'MAP, la Météo Aéronautique d'un coup d'oeil ! - Copyright ORBIFLY Décembre 2007 - Disclaimer

ORBIFLY MET'MAP TEAM :

Programmation & Développement : Alexandra Zaïnal
Sur une idée originale de : Baudouin d'Aumeries
Assistance à la programmation : Marc-Olivier Méhu
Soutien technique & logistique : Manuel Goepfert

Contact : metmap@orbifly.com




SOURCES & CREDITS :

   NOAA